Time;durP1;ratioP1;P1;durP2;ratioP2;P2;SDS_P1;SDS_P2;PMS_P1;PMS_P2;Temp;Humidity;BMP_temperature;BMP_pressure;BME280_temperature;BME280_humidity;BME280_pressure;Samples;Min_cycle;Max_cycle;Signal;HPM_P1;HPM_P2
2022/04/28 00:02:39;;;;;;;17.33;8.57;;;7.60;99.90;;;;;;4441246;28;656244;-69
2022/04/28 00:05:26;;;;;;;18.63;8.97;;;7.60;99.90;;;;;;4424187;28;658614;-69
2022/04/28 00:08:13;;;;;;;20.50;8.57;;;7.50;99.90;;;;;;4442487;28;657583;-68
2022/04/28 00:11:02;;;;;;;18.48;7.90;;;7.40;99.90;;;;;;4426451;28;657002;-69
2022/04/28 00:13:49;;;;;;;19.17;8.13;;;7.50;99.90;;;;;;4440724;28;656743;-68
2022/04/28 00:16:36;;;;;;;13.97;8.20;;;7.40;99.90;;;;;;4424738;28;656478;-69
2022/04/28 00:19:24;;;;;;;16.10;8.30;;;7.40;99.90;;;;;;4443172;28;657169;-69
2022/04/28 00:22:13;;;;;;;14.50;7.27;;;7.30;99.90;;;;;;4424020;28;656344;-68
2022/04/28 00:25:00;;;;;;;17.33;8.43;;;7.30;99.90;;;;;;4426208;28;657616;-69
2022/04/28 00:27:49;;;;;;;16.83;7.97;;;7.20;99.90;;;;;;4444523;28;656892;-68
2022/04/28 00:30:36;;;;;;;16.27;7.73;;;7.10;99.90;;;;;;4421353;28;657096;-69
2022/04/28 00:33:23;;;;;;;18.57;7.80;;;7.10;99.90;;;;;;4440671;28;656711;-68
2022/04/28 00:36:10;;;;;;;18.90;8.47;;;7.00;99.90;;;;;;4421464;28;656669;-69
2022/04/28 00:38:57;;;;;;;17.47;8.30;;;6.90;99.90;;;;;;4441060;28;657538;-68
2022/04/28 00:41:45;;;;;;;18.87;7.67;;;6.80;99.90;;;;;;4433066;28;656384;-69
2022/04/28 00:44:34;;;;;;;18.03;7.87;;;6.80;99.90;;;;;;4443190;28;658053;-68
2022/04/28 00:47:22;;;;;;;19.40;7.90;;;6.70;99.90;;;;;;4417144;28;656425;-68
2022/04/28 00:53:15;;;;;;;15.00;7.53;;;6.60;99.90;;;;;;4398404;28;656905;-69
2022/04/28 00:56:02;;;;;;;21.07;8.47;;;6.60;99.90;;;;;;4441548;28;657225;-68
2022/04/28 00:58:50;;;;;;;16.40;8.53;;;6.60;99.90;;;;;;4441592;28;656696;-68
2022/04/28 01:01:38;;;;;;;12.03;7.80;;;6.60;99.90;;;;;;4424995;28;657174;-68
2022/04/28 01:04:26;;;;;;;19.40;8.77;;;6.50;99.90;;;;;;4423800;28;657633;-68
2022/04/28 01:07:13;;;;;;;19.80;7.80;;;6.40;99.90;;;;;;4447704;28;656944;-68
2022/04/28 01:10:00;;;;;;;18.00;7.57;;;6.20;99.90;;;;;;4421117;28;656550;-69
2022/04/28 01:12:47;;;;;;;18.27;7.93;;;6.20;99.90;;;;;;4447077;28;657120;-68
2022/04/28 01:15:43;;;;;;;18.80;8.03;;;6.20;99.90;;;;;;4444793;28;657693;-68
2022/04/28 01:18:32;;;;;;;16.20;8.27;;;6.20;99.90;;;;;;4409586;28;657249;-69
2022/04/28 01:21:21;;;;;;;15.47;8.43;;;6.30;99.90;;;;;;4446070;28;656570;-68
2022/04/28 01:24:08;;;;;;;15.17;7.97;;;6.20;99.90;;;;;;4421677;28;657894;-68
2022/04/28 01:26:55;;;;;;;15.23;7.47;;;6.10;99.90;;;;;;4426007;28;656662;-69
2022/04/28 01:29:43;;;;;;;16.17;8.20;;;6.10;99.90;;;;;;4445726;28;657043;-68
2022/04/28 01:32:30;;;;;;;16.80;8.20;;;6.10;99.90;;;;;;4430963;28;657404;-69
2022/04/28 01:35:17;;;;;;;17.10;7.97;;;6.10;99.90;;;;;;4450207;28;657291;-67
2022/04/28 01:38:06;;;;;;;16.80;7.50;;;6.10;99.90;;;;;;4433188;28;656192;-69
2022/04/28 01:40:53;;;;;;;18.83;8.50;;;6.10;99.90;;;;;;4422541;28;657179;-68
2022/04/28 01:43:41;;;;;;;14.33;7.50;;;6.00;99.90;;;;;;4424646;28;656090;-69
2022/04/28 01:46:29;;;;;;;14.83;8.17;;;6.00;99.90;;;;;;4451435;28;657276;-68
2022/04/28 01:49:16;;;;;;;14.97;8.13;;;5.90;99.90;;;;;;4428333;28;657104;-68
2022/04/28 01:55:10;;;;;;;16.83;9.10;;;5.70;99.90;;;;;;4422372;28;657603;-68
2022/04/28 01:57:57;;;;;;;17.40;9.07;;;5.60;99.90;;;;;;4423236;28;658147;-67
2022/04/28 02:00:44;;;;;;;18.17;9.07;;;5.70;99.90;;;;;;4443453;28;656932;-68
2022/04/28 02:03:31;;;;;;;15.40;8.10;;;5.70;99.90;;;;;;4426953;28;656790;-68
2022/04/28 02:06:18;;;;;;;15.83;8.03;;;5.40;99.90;;;;;;4450922;28;656711;-68
2022/04/28 02:09:06;;;;;;;12.90;8.10;;;5.40;99.90;;;;;;4428092;28;656447;-68
2022/04/28 02:11:54;;;;;;;16.70;8.37;;;5.30;99.90;;;;;;4448818;28;656928;-67
2022/04/28 02:14:42;;;;;;;19.30;9.53;;;5.40;99.90;;;;;;4422527;28;657209;-69
2022/04/28 02:17:29;;;;;;;14.90;8.43;;;5.20;99.90;;;;;;4448669;28;657308;-68
2022/04/28 02:20:16;;;;;;;20.53;9.33;;;5.10;99.90;;;;;;4427510;28;656682;-68
2022/04/28 02:23:03;;;;;;;21.27;8.53;;;5.00;99.90;;;;;;4449498;28;656866;-68
2022/04/28 02:25:50;;;;;;;20.13;8.23;;;4.80;99.90;;;;;;4419397;28;656264;-68
2022/04/28 02:28:39;;;;;;;18.47;9.60;;;4.70;99.90;;;;;;4446547;28;657154;-68
2022/04/28 02:31:26;;;;;;;16.23;8.43;;;4.70;99.90;;;;;;4427013;28;657063;-68
2022/04/28 02:34:13;;;;;;;14.83;8.87;;;4.60;99.90;;;;;;4449976;28;658025;-68
2022/04/28 02:37:01;;;;;;;17.53;8.67;;;4.50;99.90;;;;;;4426197;28;657076;-68
2022/04/28 02:39:48;;;;;;;17.20;8.67;;;4.50;99.90;;;;;;4446746;28;657115;-68
2022/04/28 02:42:35;;;;;;;19.20;9.43;;;4.40;99.90;;;;;;4427902;28;656628;-69
2022/04/28 02:45:24;;;;;;;21.37;9.93;;;4.30;99.90;;;;;;4444902;28;656983;-68
2022/04/28 02:48:11;;;;;;;17.80;9.70;;;4.30;99.90;;;;;;4422958;28;656979;-68
2022/04/28 02:50:58;;;;;;;21.90;9.27;;;4.30;99.90;;;;;;4445591;28;657629;-68
2022/04/28 02:53:45;;;;;;;19.40;9.48;;;4.30;99.90;;;;;;4424315;28;656594;-69
2022/04/28 02:56:32;;;;;;;14.93;8.53;;;4.20;99.90;;;;;;4443181;28;657441;-68
2022/04/28 02:59:20;;;;;;;20.47;9.57;;;4.10;99.90;;;;;;4442544;28;656668;-69
2022/04/28 03:02:09;;;;;;;15.83;8.87;;;4.10;99.90;;;;;;4446432;28;656496;-68
2022/04/28 03:04:56;;;;;;;17.67;8.33;;;4.00;99.90;;;;;;4422852;28;657068;-68
2022/04/28 03:10:52;;;;;;;18.02;8.85;;;4.00;99.90;;;;;;4395728;28;656619;-69
2022/04/28 03:13:39;;;;;;;15.37;8.30;;;3.90;99.90;;;;;;4445140;28;656342;-67
2022/04/28 03:16:26;;;;;;;16.77;8.23;;;3.90;99.90;;;;;;4420605;28;656655;-68
2022/04/28 03:19:15;;;;;;;17.07;8.37;;;3.90;99.90;;;;;;4443007;28;656837;-67
2022/04/28 03:22:02;;;;;;;14.73;7.97;;;3.80;99.90;;;;;;4426233;28;657184;-68
2022/04/28 03:24:50;;;;;;;17.93;8.20;;;3.90;99.90;;;;;;4431950;28;656277;-69
2022/04/28 03:27:37;;;;;;;17.17;8.87;;;3.80;99.90;;;;;;4448087;28;656956;-67
2022/04/28 03:30:25;;;;;;;18.57;9.80;;;3.70;99.90;;;;;;4443669;28;656585;-67
2022/04/28 03:33:12;;;;;;;18.00;8.83;;;3.60;99.90;;;;;;4422118;28;657356;-68
2022/04/28 03:36:00;;;;;;;19.17;9.13;;;3.50;99.90;;;;;;4441931;28;656358;-67
2022/04/28 03:38:48;;;;;;;17.80;9.23;;;3.40;99.90;;;;;;4422525;28;656638;-67
2022/04/28 03:41:35;;;;;;;17.43;8.40;;;3.40;99.90;;;;;;4433429;28;657225;-69
2022/04/28 03:44:22;;;;;;;16.73;8.70;;;3.30;99.90;;;;;;4448475;28;657417;-67
2022/04/28 03:47:10;;;;;;;18.37;9.27;;;3.20;99.90;;;;;;4445199;28;656744;-67
2022/04/28 03:49:57;;;;;;;14.97;8.70;;;3.30;99.90;;;;;;4419988;28;657526;-68
2022/04/28 03:52:45;;;;;;;17.13;8.93;;;3.30;99.90;;;;;;4440066;28;656170;-68
2022/04/28 03:55:33;;;;;;;16.57;8.97;;;3.40;99.90;;;;;;4418011;28;657239;-67
2022/04/28 03:58:20;;;;;;;16.87;8.93;;;3.30;99.90;;;;;;4432471;28;656578;-68
2022/04/28 04:01:07;;;;;;;16.20;8.87;;;3.40;99.90;;;;;;4447932;28;655724;-68
2022/04/28 04:03:54;;;;;;;16.77;9.00;;;3.50;99.90;;;;;;4447366;28;656459;-67
2022/04/28 04:06:42;;;;;;;18.40;9.30;;;3.60;99.90;;;;;;4414814;28;656937;-68
2022/04/28 04:09:30;;;;;;;20.43;10.40;;;3.60;99.90;;;;;;4444309;28;656492;-68
2022/04/28 04:12:17;;;;;;;19.30;9.63;;;3.80;99.90;;;;;;4418867;28;658149;-67
2022/04/28 04:15:06;;;;;;;15.30;9.47;;;3.80;99.90;;;;;;4439033;28;656048;-69
2022/04/28 04:17:54;;;;;;;18.63;9.40;;;3.90;99.90;;;;;;4436536;28;656363;-68
2022/04/28 04:20:41;;;;;;;22.43;9.30;;;4.00;99.90;;;;;;4425566;28;658177;-69
2022/04/28 04:23:28;;;;;;;18.40;9.57;;;4.10;99.90;;;;;;4447452;28;657557;-67
2022/04/28 04:26:17;;;;;;;16.33;8.80;;;4.20;99.90;;;;;;4423736;28;657009;-69
2022/04/28 04:29:04;;;;;;;16.73;9.57;;;4.20;99.90;;;;;;4448082;28;656809;-67
2022/04/28 04:34:56;;;;;;;18.47;9.60;;;4.70;99.90;;;;;;4393548;28;656765;-68
2022/04/28 04:37:43;;;;;;;14.87;9.20;;;4.80;99.90;;;;;;4446552;28;656876;-67
2022/04/28 04:40:30;;;;;;;18.58;8.90;;;5.00;99.90;;;;;;4425212;28;657707;-68
2022/04/28 04:43:19;;;;;;;16.13;9.33;;;5.30;99.90;;;;;;4443797;28;657092;-68
2022/04/28 04:46:06;;;;;;;20.47;8.73;;;5.50;99.90;;;;;;4418883;28;656909;-68
2022/04/28 04:48:53;;;;;;;14.82;8.73;;;5.70;99.90;;;;;;4445366;28;657661;-68
2022/04/28 04:51:40;;;;;;;15.67;8.53;;;5.80;99.90;;;;;;4422597;28;657315;-68
2022/04/28 04:54:27;;;;;;;17.60;8.13;;;6.00;99.90;;;;;;4443199;28;657677;-68
2022/04/28 04:57:15;;;;;;;13.80;7.90;;;6.20;99.90;;;;;;4439081;28;656234;-69
2022/04/28 05:00:05;;;;;;;15.57;8.13;;;6.40;99.90;;;;;;4445562;28;656678;-68
2022/04/28 05:02:52;;;;;;;16.97;8.17;;;6.60;99.90;;;;;;4420718;28;657052;-68
2022/04/28 05:05:39;;;;;;;14.83;7.90;;;6.80;99.90;;;;;;4448807;28;656556;-67
2022/04/28 05:08:26;;;;;;;13.87;7.57;;;6.90;99.90;;;;;;4424232;28;656632;-67
2022/04/28 05:11:13;;;;;;;12.63;7.67;;;7.10;99.90;;;;;;4449980;28;657011;-68
2022/04/28 05:14:01;;;;;;;14.83;7.53;;;7.20;99.90;;;;;;4421306;28;656784;-68
2022/04/28 05:16:49;;;;;;;15.33;7.53;;;7.40;99.90;;;;;;4445659;28;657489;-67
2022/04/28 05:19:36;;;;;;;13.97;7.47;;;7.50;99.90;;;;;;4425705;28;656525;-68
2022/04/28 05:22:24;;;;;;;16.37;6.90;;;7.70;99.90;;;;;;4444407;28;656992;-67
2022/04/28 05:25:11;;;;;;;13.23;6.87;;;7.90;99.90;;;;;;4424807;28;656251;-68
2022/04/28 05:27:58;;;;;;;12.73;6.17;;;8.10;99.90;;;;;;4440696;28;657337;-68
2022/04/28 05:30:46;;;;;;;15.48;6.65;;;8.30;99.90;;;;;;4422227;28;656285;-69
2022/04/28 05:33:35;;;;;;;14.37;6.73;;;8.60;99.90;;;;;;4443591;28;658077;-68
2022/04/28 05:36:24;;;;;;;13.23;6.50;;;8.80;99.90;;;;;;4427976;28;657164;-68
2022/04/28 05:39:11;;;;;;;9.53;6.27;;;9.00;99.90;;;;;;4423845;28;656200;-68
2022/04/28 05:41:58;;;;;;;10.18;6.07;;;9.20;99.90;;;;;;4430223;28;656691;-68
2022/04/28 05:47:49;;;;;;;10.10;4.80;;;9.50;99.90;;;;;;4396445;28;656162;-68
2022/04/28 05:50:38;;;;;;;9.63;5.20;;;9.80;99.90;;;;;;4425600;28;656825;-68
2022/04/28 05:53:25;;;;;;;10.73;5.25;;;10.10;99.90;;;;;;4433865;28;655735;-70
2022/04/28 05:56:12;;;;;;;10.20;4.57;;;10.20;99.90;;;;;;4451552;28;658536;-68
2022/04/28 05:59:01;;;;;;;8.83;4.20;;;10.50;99.90;;;;;;4443108;28;657258;-69
2022/04/28 06:01:49;;;;;;;9.07;4.90;;;10.60;99.90;;;;;;4447146;28;656791;-68
2022/04/28 06:04:36;;;;;;;8.20;5.07;;;10.80;99.30;;;;;;4422424;28;656985;-68
2022/04/28 06:07:25;;;;;;;6.40;4.27;;;10.90;94.00;;;;;;4449008;28;657984;-68
2022/04/28 06:10:13;;;;;;;9.40;4.43;;;11.00;91.80;;;;;;4426276;28;657329;-68
2022/04/28 06:13:00;;;;;;;10.85;4.43;;;11.20;91.40;;;;;;4430033;28;656978;-69
2022/04/28 06:15:48;;;;;;;11.47;3.73;;;11.30;90.80;;;;;;4448311;28;658062;-68
2022/04/28 06:18:35;;;;;;;7.17;3.70;;;11.40;91.40;;;;;;4428799;28;658130;-69
2022/04/28 06:21:22;;;;;;;5.37;3.77;;;11.60;84.80;;;;;;4449368;28;657719;-68
2022/04/28 06:24:12;;;;;;;9.17;3.53;;;11.70;76.00;;;;;;4444727;28;657437;-69
2022/04/28 06:26:59;;;;;;;5.67;3.33;;;11.80;87.30;;;;;;4453389;28;656094;-68
2022/04/28 06:29:49;;;;;;;7.37;4.13;;;11.90;75.20;;;;;;4428996;28;656500;-68
2022/04/28 06:32:37;;;;;;;5.93;3.20;;;12.20;78.00;;;;;;4429887;28;657157;-68
2022/04/28 06:35:24;;;;;;;6.03;3.07;;;12.40;72.60;;;;;;4448869;28;657052;-68
2022/04/28 06:38:12;;;;;;;10.23;3.50;;;12.40;72.90;;;;;;4426687;28;657718;-69
2022/04/28 06:41:01;;;;;;;9.50;3.53;;;12.50;80.30;;;;;;4446493;28;657199;-68
2022/04/28 06:43:48;;;;;;;5.63;3.23;;;12.60;68.00;;;;;;4420017;28;656363;-69
2022/04/28 06:46:35;;;;;;;8.33;3.80;;;12.50;66.60;;;;;;4420259;28;656981;-69
2022/04/28 06:49:23;;;;;;;7.83;3.37;;;12.70;67.70;;;;;;4449582;28;656374;-68
2022/04/28 06:52:10;;;;;;;4.03;2.93;;;12.90;66.10;;;;;;4435443;28;657188;-69
2022/04/28 06:54:58;;;;;;;8.57;3.50;;;12.90;63.60;;;;;;4445835;28;657708;-68
2022/04/28 06:57:47;;;;;;;5.93;3.53;;;13.10;66.50;;;;;;4424511;28;657065;-68
2022/04/28 07:00:34;;;;;;;8.47;3.63;;;13.30;63.90;;;;;;4445513;28;657283;-69
2022/04/28 07:03:21;;;;;;;7.43;3.60;;;13.30;62.00;;;;;;4424590;28;656646;-68
2022/04/28 07:06:09;;;;;;;6.70;3.70;;;13.50;63.70;;;;;;4440418;28;657273;-69
2022/04/28 07:08:56;;;;;;;6.03;3.37;;;13.60;64.90;;;;;;4422515;28;656772;-68
2022/04/28 07:11:43;;;;;;;7.13;3.67;;;13.60;58.40;;;;;;4434465;28;657418;-69
2022/04/28 07:14:33;;;;;;;9.07;4.20;;;13.90;61.00;;;;;;4418965;28;657332;-69
2022/04/28 07:17:21;;;;;;;6.13;3.43;;;13.90;60.80;;;;;;4419207;28;657140;-68
2022/04/28 07:20:09;;;;;;;5.93;3.73;;;13.90;57.00;;;;;;4440511;28;657019;-68
2022/04/28 07:22:59;;;;;;;6.47;3.50;;;14.00;58.60;;;;;;4415993;28;657467;-68
2022/04/28 07:25:46;;;;;;;5.50;3.67;;;14.10;61.00;;;;;;4420186;28;656972;-68
2022/04/28 07:28:33;;;;;;;6.40;4.30;;;14.50;56.90;;;;;;4442580;28;657749;-67
2022/04/28 07:31:22;;;;;;;6.87;3.77;;;14.30;54.50;;;;;;4422596;28;656859;-68
2022/04/28 07:34:09;;;;;;;11.60;3.93;;;14.40;53.40;;;;;;4453550;28;656872;-67
2022/04/28 07:36:56;;;;;;;6.10;3.90;;;14.30;53.80;;;;;;4419139;28;657310;-68
2022/04/28 07:39:43;;;;;;;6.50;4.13;;;14.20;53.60;;;;;;4444935;28;656686;-68
2022/04/28 07:42:31;;;;;;;5.50;3.73;;;14.40;53.50;;;;;;4421854;28;656983;-67
2022/04/28 07:45:18;;;;;;;8.57;4.13;;;14.50;48.90;;;;;;4445447;28;657171;-67
2022/04/28 07:48:07;;;;;;;6.03;3.95;;;15.00;54.70;;;;;;4427100;28;657806;-69
2022/04/28 07:50:55;;;;;;;6.27;4.13;;;14.90;48.90;;;;;;4437663;28;656603;-69
2022/04/28 07:53:42;;;;;;;7.40;4.53;;;15.10;48.60;;;;;;4445756;28;657449;-68
2022/04/28 07:56:30;;;;;;;5.73;3.57;;;15.00;48.60;;;;;;4447088;28;656892;-69
2022/04/28 07:59:17;;;;;;;7.47;4.07;;;15.30;50.10;;;;;;4439294;28;658252;-68
2022/04/28 08:02:05;;;;;;;8.10;4.20;;;15.80;48.10;;;;;;4432287;28;656821;-68
2022/04/28 08:04:54;;;;;;;8.43;3.80;;;15.90;48.00;;;;;;4439415;28;657985;-67
2022/04/28 08:07:42;;;;;;;8.60;4.37;;;15.80;47.50;;;;;;4411614;28;657725;-68
2022/04/28 08:10:29;;;;;;;7.53;4.07;;;15.20;47.50;;;;;;4445854;28;658094;-69
2022/04/28 08:13:16;;;;;;;5.63;3.70;;;15.00;47.60;;;;;;4416914;28;656754;-68
2022/04/28 08:16:03;;;;;;;8.23;4.50;;;15.10;50.40;;;;;;4438111;28;657710;-68
2022/04/28 08:18:51;;;;;;;7.97;5.53;;;15.70;48.70;;;;;;4418924;28;656748;-68
2022/04/28 08:21:39;;;;;;;5.03;3.47;;;16.20;48.40;;;;;;4450053;28;658421;-69
2022/04/28 08:24:26;;;;;;;7.00;3.73;;;16.30;44.80;;;;;;4423509;28;656974;-69
2022/04/28 08:27:14;;;;;;;8.37;3.73;;;15.60;45.30;;;;;;4447796;28;656860;-68
2022/04/28 08:30:01;;;;;;;10.87;3.90;;;15.10;47.60;;;;;;4427031;28;659037;-69
2022/04/28 08:32:48;;;;;;;6.03;3.80;;;15.00;49.70;;;;;;4442984;28;657586;-67
2022/04/28 08:35:35;;;;;;;8.87;3.70;;;15.00;49.00;;;;;;4427156;28;656489;-69
2022/04/28 08:38:24;;;;;;;7.27;3.90;;;14.50;45.20;;;;;;4436977;28;657410;-67
2022/04/28 08:41:13;;;;;;;8.00;3.20;;;15.40;48.10;;;;;;4423657;28;656890;-68
2022/04/28 08:44:02;;;;;;;4.43;3.30;;;16.20;46.80;;;;;;4417787;28;657512;-68
2022/04/28 08:46:53;;;;;;;6.10;3.60;;;15.60;44.80;;;;;;4441800;28;656192;-68
2022/04/28 08:49:42;;;;;;;14.17;3.60;;;15.10;45.70;;;;;;4422356;28;656828;-68
2022/04/28 08:52:30;;;;;;;7.93;3.43;;;14.80;45.80;;;;;;4440173;28;659221;-68
2022/04/28 08:55:19;;;;;;;5.27;3.50;;;14.40;45.40;;;;;;4428354;28;657449;-67
2022/04/28 08:58:06;;;;;;;7.70;3.20;;;14.30;46.90;;;;;;4421870;28;656970;-68
2022/04/28 09:00:53;;;;;;;5.30;3.00;;;14.40;48.80;;;;;;4449483;28;656565;-68
2022/04/28 09:03:41;;;;;;;6.47;3.73;;;14.20;47.00;;;;;;4424281;28;656698;-69
2022/04/28 09:06:29;;;;;;;7.50;3.63;;;14.20;48.00;;;;;;4445658;28;656565;-67
2022/04/28 09:09:18;;;;;;;6.70;3.33;;;14.20;48.50;;;;;;4425025;28;656499;-67
2022/04/28 09:12:07;;;;;;;6.43;3.53;;;14.40;50.60;;;;;;4422066;28;656883;-69
2022/04/28 09:14:55;;;;;;;4.73;3.40;;;15.00;50.00;;;;;;4442085;28;656266;-68
2022/04/28 09:17:43;;;;;;;4.77;3.43;;;15.40;48.60;;;;;;4442332;28;657158;-68
2022/04/28 09:20:30;;;;;;;5.13;3.30;;;16.00;46.50;;;;;;4436437;28;656175;-69
2022/04/28 09:23:18;;;;;;;6.17;3.40;;;15.80;43.40;;;;;;4446485;28;656597;-68
2022/04/28 09:26:05;;;;;;;8.40;3.53;;;15.70;44.20;;;;;;4424688;28;656846;-69
2022/04/28 09:28:54;;;;;;;6.87;3.80;;;15.30;42.80;;;;;;4449309;28;657174;-68
2022/04/28 09:31:43;;;;;;;7.00;3.47;;;15.20;45.80;;;;;;4422224;28;656465;-68
2022/04/28 09:34:30;;;;;;;7.07;3.57;;;14.90;42.70;;;;;;4431660;28;656395;-69
2022/04/28 09:37:19;;;;;;;6.50;3.40;;;14.90;43.80;;;;;;4448616;28;658230;-68
2022/04/28 09:43:12;;;;;;;6.23;3.40;;;15.10;43.90;;;;;;4406215;28;656754;-67
2022/04/28 09:46:01;;;;;;;8.73;3.63;;;16.00;45.00;;;;;;4450194;28;656455;-68
2022/04/28 09:48:48;;;;;;;7.43;3.43;;;16.60;44.00;;;;;;4426632;28;656622;-68
2022/04/28 09:51:36;;;;;;;5.30;3.20;;;17.00;38.60;;;;;;4428265;28;656632;-68
2022/04/28 09:54:23;;;;;;;5.73;3.30;;;17.20;41.50;;;;;;4444963;28;657795;-68
2022/04/28 09:57:10;;;;;;;5.03;3.17;;;17.50;38.80;;;;;;4426424;28;658396;-69
2022/04/28 09:59:59;;;;;;;5.73;3.20;;;16.60;36.70;;;;;;4439619;28;656952;-67
2022/04/28 10:02:47;;;;;;;4.70;2.90;;;15.70;39.00;;;;;;4422780;28;657526;-68
2022/04/28 10:05:35;;;;;;;5.00;3.10;;;16.20;41.80;;;;;;4442448;28;657174;-68
2022/04/28 10:08:22;;;;;;;5.57;4.00;;;16.10;41.70;;;;;;4444488;28;657789;-68
2022/04/28 10:11:14;;;;;;;3.13;2.70;;;15.90;41.90;;;;;;4435888;28;658051;-68
2022/04/28 10:14:02;;;;;;;3.23;2.60;;;16.70;40.00;;;;;;4423979;28;659326;-68
2022/04/28 10:16:49;;;;;;;5.10;3.00;;;17.60;40.50;;;;;;4442285;28;656599;-68
2022/04/28 10:19:41;;;;;;;5.73;2.80;;;18.70;38.90;;;;;;4424318;28;656878;-68
2022/04/28 10:22:30;;;;;;;7.63;3.30;;;18.60;35.90;;;;;;4419577;28;657034;-68
2022/04/28 10:35:04;;;;;;;6.43;3.50;;;15.80;40.20;;;;;;4424873;28;656829;-68
2022/04/28 10:37:51;;;;;;;6.13;3.40;;;15.80;41.50;;;;;;4404425;28;657060;-68
2022/04/28 10:40:39;;;;;;;6.77;2.77;;;15.50;42.80;;;;;;4446031;28;657364;-68
2022/04/28 10:43:27;;;;;;;4.30;2.60;;;16.70;39.50;;;;;;4424318;28;657010;-67
2022/04/28 10:46:30;;;;;;;5.00;3.00;;;17.90;40.40;;;;;;4447534;28;656823;-68
2022/04/28 10:49:24;;;;;;;3.00;2.30;;;18.60;38.20;;;;;;4397785;28;657081;-68
2022/04/28 10:52:23;;;;;;;4.57;3.53;;;18.80;36.70;;;;;;4395884;28;656976;-69
2022/04/28 10:55:10;;;;;;;6.30;3.33;;;18.20;38.90;;;;;;4409149;28;656546;-69
2022/04/28 10:57:59;;;;;;;11.23;8.07;;;17.70;38.00;;;;;;4436447;28;657557;-68
2022/04/28 11:00:52;;;;;;;7.20;3.87;;;17.20;37.30;;;;;;4427917;28;658642;-67
2022/04/28 11:03:44;;;;;;;4.87;2.53;;;16.70;38.10;;;;;;4423865;28;656828;-67
2022/04/28 11:06:32;;;;;;;5.17;3.00;;;16.20;39.10;;;;;;4425913;28;656401;-67
2022/04/28 11:09:31;;;;;;;4.57;3.87;;;15.70;39.00;;;;;;4445476;28;656279;-68
2022/04/28 11:12:19;;;;;;;6.20;3.73;;;16.00;40.30;;;;;;4423177;28;656730;-68
2022/04/28 11:15:08;;;;;;;6.57;3.93;;;16.60;40.60;;;;;;4427381;28;656460;-69
2022/04/28 11:17:55;;;;;;;9.53;3.97;;;18.30;39.00;;;;;;4423046;28;657034;-69
2022/04/28 11:20:42;;;;;;;10.67;5.43;;;18.20;39.70;;;;;;4451333;28;657242;-67
2022/04/28 11:23:34;;;;;;;7.20;3.50;;;17.20;39.20;;;;;;4438477;28;658384;-68
2022/04/28 11:26:26;;;;;;;7.63;3.80;;;16.70;40.00;;;;;;4425843;28;657529;-68
2022/04/28 11:29:13;;;;;;;7.17;3.27;;;16.20;41.50;;;;;;4422771;28;656721;-68
2022/04/28 11:32:01;;;;;;;11.40;3.37;;;16.10;40.20;;;;;;4426203;28;656888;-68
2022/04/28 11:34:48;;;;;;;8.63;4.03;;;15.70;40.80;;;;;;4449328;28;658979;-68
2022/04/28 11:37:38;;;;;;;6.73;3.63;;;15.70;40.50;;;;;;4424795;28;656665;-67
2022/04/28 11:40:25;;;;;;;5.17;3.50;;;15.60;41.10;;;;;;4423178;28;656540;-68
2022/04/28 11:43:15;;;;;;;6.80;4.10;;;15.80;42.00;;;;;;4446042;28;658136;-67
2022/04/28 11:46:02;;;;;;;5.87;3.67;;;16.00;41.30;;;;;;4423658;28;657460;-68
2022/04/28 11:48:53;;;;;;;6.93;4.10;;;16.10;42.60;;;;;;4442189;28;656770;-68
2022/04/28 11:51:40;;;;;;;7.30;3.60;;;16.20;41.20;;;;;;4426063;28;656765;-68
2022/04/28 11:54:28;;;;;;;7.47;3.87;;;16.20;39.40;;;;;;4446191;28;657638;-68
2022/04/28 11:57:15;;;;;;;4.67;3.00;;;16.10;41.10;;;;;;4422404;28;656839;-68
2022/04/28 12:00:06;;;;;;;6.10;3.23;;;16.20;40.90;;;;;;4450604;28;656726;-67
2022/04/28 12:02:54;;;;;;;5.90;3.83;;;16.20;41.10;;;;;;4427632;28;656407;-68
2022/04/28 12:05:41;;;;;;;6.33;3.13;;;16.40;40.90;;;;;;4422059;28;656758;-67
2022/04/28 12:08:29;;;;;;;5.70;3.47;;;16.50;41.50;;;;;;4443252;28;656893;-67
2022/04/28 12:14:24;;;;;;;5.37;3.13;;;17.20;39.00;;;;;;4402958;28;657535;-68
2022/04/28 12:20:17;;;;;;;5.83;3.10;;;19.20;39.10;;;;;;4395759;28;657310;-67
2022/04/28 12:23:05;;;;;;;6.80;3.30;;;19.70;38.60;;;;;;4445594;28;656977;-67
2022/04/28 12:25:52;;;;;;;3.67;2.80;;;18.70;34.70;;;;;;4422064;28;657876;-68
2022/04/28 12:28:40;;;;;;;5.37;2.80;;;18.10;36.10;;;;;;4447730;28;656817;-67
2022/04/28 12:31:29;;;;;;;5.63;2.90;;;17.50;37.60;;;;;;4419054;28;657285;-67
2022/04/28 12:34:19;;;;;;;9.87;3.00;;;16.90;37.10;;;;;;4424762;28;656911;-67
2022/04/28 12:37:06;;;;;;;4.67;2.80;;;17.00;41.30;;;;;;4426634;28;656622;-68
2022/04/28 12:39:58;;;;;;;5.27;3.00;;;16.90;36.70;;;;;;4441236;28;656842;-67
2022/04/28 12:42:46;;;;;;;4.80;2.88;;;16.70;37.30;;;;;;4409780;28;656946;-69
2022/04/28 12:45:50;;;;;;;5.63;3.00;;;16.80;35.50;;;;;;4423299;28;657655;-68
2022/04/28 12:48:39;;;;;;;7.07;2.90;;;16.60;35.70;;;;;;4377768;28;656765;-67
2022/04/28 12:51:27;;;;;;;6.80;3.40;;;16.80;35.50;;;;;;4406077;28;656951;-67
2022/04/28 12:54:15;;;;;;;7.77;3.30;;;17.00;36.40;;;;;;4424731;28;657085;-67
2022/04/28 12:57:04;;;;;;;6.97;3.80;;;17.30;37.00;;;;;;4399078;28;661711;-67
2022/04/28 12:59:51;;;;;;;7.10;3.25;;;18.60;38.10;;;;;;4399891;28;656838;-67
2022/04/28 13:02:38;;;;;;;7.03;3.40;;;18.40;35.60;;;;;;4420769;28;657275;-67
2022/04/28 13:05:27;;;;;;;6.97;2.80;;;17.70;35.70;;;;;;4405236;28;656308;-68
2022/04/28 13:08:17;;;;;;;4.27;2.77;;;17.70;34.80;;;;;;4422421;28;656463;-68
2022/04/28 13:11:04;;;;;;;9.27;4.33;;;17.60;35.90;;;;;;4427550;28;656679;-67
2022/04/28 13:13:52;;;;;;;10.83;4.37;;;17.00;36.70;;;;;;4403975;28;657524;-67
2022/04/28 13:16:39;;;;;;;9.73;4.00;;;16.70;38.50;;;;;;4422766;28;659056;-67
2022/04/28 13:19:26;;;;;;;7.97;4.23;;;16.30;41.00;;;;;;4401368;28;656877;-67
2022/04/28 13:22:14;;;;;;;11.23;4.80;;;16.00;42.60;;;;;;4421154;28;657323;-67
2022/04/28 13:25:02;;;;;;;8.43;4.33;;;15.80;43.30;;;;;;4408406;28;657753;-67
2022/04/28 13:27:50;;;;;;;11.23;4.20;;;15.80;43.70;;;;;;4429772;28;656322;-67
2022/04/28 13:30:38;;;;;;;11.23;4.73;;;15.70;43.60;;;;;;4409576;28;657671;-67
2022/04/28 13:33:25;;;;;;;13.70;5.13;;;15.40;44.50;;;;;;4422907;28;659867;-67
2022/04/28 13:36:13;;;;;;;9.27;4.77;;;15.30;42.60;;;;;;4432896;28;658215;-67
2022/04/28 13:39:00;;;;;;;8.03;4.20;;;15.30;42.10;;;;;;4418278;28;656257;-67
2022/04/28 13:41:49;;;;;;;8.53;4.50;;;15.30;42.90;;;;;;4437875;28;657110;-67
2022/04/28 13:44:36;;;;;;;10.67;3.73;;;15.30;41.90;;;;;;4430954;28;656546;-67
2022/04/28 13:47:25;;;;;;;6.97;4.27;;;15.60;43.60;;;;;;4446224;28;659085;-67
2022/04/28 13:50:12;;;;;;;9.77;4.03;;;15.70;42.30;;;;;;4425400;28;657416;-66
2022/04/28 13:52:59;;;;;;;7.20;4.47;;;15.80;43.60;;;;;;4447712;28;656602;-67
2022/04/28 13:55:46;;;;;;;10.57;5.03;;;16.30;40.10;;;;;;4429608;28;656371;-67
2022/04/28 13:58:37;;;;;;;8.10;4.40;;;17.30;39.30;;;;;;4443641;28;657804;-67
2022/04/28 14:01:24;;;;;;;10.27;4.20;;;18.20;40.60;;;;;;4426495;28;656445;-68
2022/04/28 14:04:11;;;;;;;7.47;3.70;;;18.40;36.10;;;;;;4422679;28;657642;-67
2022/04/28 14:06:58;;;;;;;6.07;3.80;;;18.90;36.60;;;;;;4448785;28;657830;-66
2022/04/28 14:09:45;;;;;;;5.17;3.73;;;18.60;38.10;;;;;;4428807;28;656980;-67
2022/04/28 14:12:33;;;;;;;6.37;3.60;;;19.10;34.80;;;;;;4442737;28;657183;-67
2022/04/28 14:15:21;;;;;;;8.40;3.50;;;18.80;35.30;;;;;;4429456;28;656826;-68
2022/04/28 14:18:09;;;;;;;6.87;3.67;;;17.60;35.10;;;;;;4446468;28;656537;-67
2022/04/28 14:20:56;;;;;;;8.00;3.63;;;17.70;37.50;;;;;;4423617;28;657288;-67
2022/04/28 14:23:44;;;;;;;8.10;3.77;;;18.00;35.60;;;;;;4444392;28;656968;-67
2022/04/28 14:26:31;;;;;;;10.50;3.73;;;18.40;36.10;;;;;;4426957;28;656544;-67
2022/04/28 14:29:19;;;;;;;7.53;3.53;;;18.10;34.10;;;;;;4441797;28;657823;-67
2022/04/28 14:32:08;;;;;;;6.93;3.87;;;18.20;36.00;;;;;;4427029;28;656164;-67
2022/04/28 14:34:56;;;;;;;7.60;3.70;;;17.70;36.30;;;;;;4430429;28;656823;-67
2022/04/28 14:37:43;;;;;;;9.47;3.50;;;17.80;36.10;;;;;;4451098;28;657304;-67
2022/04/28 14:40:30;;;;;;;4.97;3.40;;;19.10;37.70;;;;;;4428603;28;656378;-67
2022/04/28 14:43:17;;;;;;;9.67;4.17;;;19.70;33.90;;;;;;4450691;28;656544;-67
2022/04/28 14:46:04;;;;;;;5.93;3.60;;;19.60;34.70;;;;;;4443436;28;656275;-67
2022/04/28 14:55:04;;;;;;;8.90;4.37;;;20.40;35.60;;;;;;4423412;28;657800;-67
2022/04/28 14:57:52;;;;;;;9.77;4.53;;;19.90;36.00;;;;;;4431904;28;657218;-67
2022/04/28 15:00:39;;;;;;;11.40;6.13;;;19.20;34.80;;;;;;4441944;28;656866;-67
2022/04/28 15:03:29;;;;;;;7.13;4.53;;;20.10;37.00;;;;;;4425003;28;658237;-67